sensor_id;sensor_type;location;lat;lon;timestamp;pressure;altitude;pressure_sealevel;temperature;humidity
75166;BME280;63747;48.042;10.088;2023-07-08T00:00:35;95298.97;;;17.01;47.65
75166;BME280;63747;48.042;10.088;2023-07-08T00:03:35;95307.66;;;16.96;48.31
75166;BME280;63747;48.042;10.088;2023-07-08T00:06:36;95301.09;;;16.79;48.24
75166;BME280;63747;48.042;10.088;2023-07-08T00:09:37;95301.53;;;16.76;48.80
75166;BME280;63747;48.042;10.088;2023-07-08T00:12:38;95298.41;;;16.79;48.53
75166;BME280;63747;48.042;10.088;2023-07-08T00:15:39;95290.16;;;16.80;48.73
75166;BME280;63747;48.042;10.088;2023-07-08T00:18:40;95291.63;;;16.83;48.53
75166;BME280;63747;48.042;10.088;2023-07-08T00:21:41;95286.06;;;16.78;47.26
75166;BME280;63747;48.042;10.088;2023-07-08T00:24:42;95283.81;;;16.75;48.57
75166;BME280;63747;48.042;10.088;2023-07-08T00:27:43;95287.34;;;16.69;47.12
75166;BME280;63747;48.042;10.088;2023-07-08T00:30:43;95284.25;;;16.65;49.05
75166;BME280;63747;48.042;10.088;2023-07-08T00:33:44;95293.31;;;16.57;49.13
75166;BME280;63747;48.042;10.088;2023-07-08T00:36:45;95291.25;;;16.59;49.15
75166;BME280;63747;48.042;10.088;2023-07-08T00:39:46;95292.91;;;16.61;49.36
75166;BME280;63747;48.042;10.088;2023-07-08T00:42:48;95289.63;;;16.45;49.92
75166;BME280;63747;48.042;10.088;2023-07-08T00:45:51;95286.94;;;16.32;51.31
75166;BME280;63747;48.042;10.088;2023-07-08T00:52:19;95286.56;;;16.28;51.84
75166;BME280;63747;48.042;10.088;2023-07-08T00:55:20;95288.22;;;16.16;52.63
75166;BME280;63747;48.042;10.088;2023-07-08T00:58:21;95291.91;;;16.22;53.36
75166;BME280;63747;48.042;10.088;2023-07-08T01:01:25;95286.97;;;16.25;53.22
75166;BME280;63747;48.042;10.088;2023-07-08T01:04:39;95296.22;;;16.29;52.57
75166;BME280;63747;48.042;10.088;2023-07-08T01:07:44;95290.88;;;16.29;52.62
75166;BME280;63747;48.042;10.088;2023-07-08T01:10:49;95290.88;;;16.23;52.43
75166;BME280;63747;48.042;10.088;2023-07-08T01:13:51;95286.34;;;16.30;52.06
75166;BME280;63747;48.042;10.088;2023-07-08T01:16:53;95286.34;;;16.23;52.21
75166;BME280;63747;48.042;10.088;2023-07-08T01:19:54;95286.13;;;16.25;52.39
75166;BME280;63747;48.042;10.088;2023-07-08T01:22:55;95287.16;;;16.30;52.73
75166;BME280;63747;48.042;10.088;2023-07-08T01:25:56;95291.47;;;16.31;52.14
75166;BME280;63747;48.042;10.088;2023-07-08T01:28:57;95287.78;;;16.26;51.70
75166;BME280;63747;48.042;10.088;2023-07-08T01:31:59;95282.03;;;16.29;51.81
75166;BME280;63747;48.042;10.088;2023-07-08T01:35:03;95283.69;;;16.23;52.21
75166;BME280;63747;48.042;10.088;2023-07-08T01:38:03;95298.47;;;16.19;50.79
75166;BME280;63747;48.042;10.088;2023-07-08T01:41:11;95293.97;;;16.20;52.01
75166;BME280;63747;48.042;10.088;2023-07-08T01:44:20;95292.53;;;16.24;52.29
75166;BME280;63747;48.042;10.088;2023-07-08T01:47:22;95280.59;;;16.26;52.41
75166;BME280;63747;48.042;10.088;2023-07-08T01:50:23;95284.09;;;16.27;50.82
75166;BME280;63747;48.042;10.088;2023-07-08T01:53:33;95283.88;;;16.28;53.20
75166;BME280;63747;48.042;10.088;2023-07-08T01:56:34;95283.47;;;16.25;52.97
75166;BME280;63747;48.042;10.088;2023-07-08T01:59:35;95282.03;;;16.22;53.40
75166;BME280;63747;48.042;10.088;2023-07-08T02:02:35;95282.03;;;16.22;53.33
75166;BME280;63747;48.042;10.088;2023-07-08T02:05:36;95290.06;;;16.22;53.42
75166;BME280;63747;48.042;10.088;2023-07-08T02:08:37;95284.72;;;16.22;53.51
75166;BME280;63747;48.042;10.088;2023-07-08T02:11:37;95296.63;;;16.13;53.63
75166;BME280;63747;48.042;10.088;2023-07-08T02:14:38;95285.09;;;16.06;53.93
75166;BME280;63747;48.042;10.088;2023-07-08T02:17:39;95288.59;;;16.07;53.51
75166;BME280;63747;48.042;10.088;2023-07-08T02:20:39;95292.50;;;16.11;53.25
75166;BME280;63747;48.042;10.088;2023-07-08T02:23:40;95289.22;;;16.15;53.54
75166;BME280;63747;48.042;10.088;2023-07-08T02:26:41;95294.56;;;16.15;53.89
75166;BME280;63747;48.042;10.088;2023-07-08T02:29:41;95300.72;;;16.16;53.79
75166;BME280;63747;48.042;10.088;2023-07-08T02:32:42;95318.84;;;16.07;53.59
75166;BME280;63747;48.042;10.088;2023-07-08T02:35:48;95339.38;;;15.93;53.90
75166;BME280;63747;48.042;10.088;2023-07-08T02:38:49;95337.53;;;15.87;53.44
75166;BME280;63747;48.042;10.088;2023-07-08T02:41:50;95365.47;;;15.91;53.60
75166;BME280;63747;48.042;10.088;2023-07-08T02:44:51;95365.66;;;15.83;53.64
75166;BME280;63747;48.042;10.088;2023-07-08T02:47:51;95359.72;;;15.88;52.90
75166;BME280;63747;48.042;10.088;2023-07-08T02:51:01;95364.47;;;16.05;52.54
75166;BME280;63747;48.042;10.088;2023-07-08T02:54:02;95365.56;;;16.18;51.95
75166;BME280;63747;48.042;10.088;2023-07-08T02:57:03;95345.63;;;16.27;52.04
75166;BME280;63747;48.042;10.088;2023-07-08T03:00:04;95355.91;;;16.30;51.91
75166;BME280;63747;48.042;10.088;2023-07-08T03:03:06;95347.88;;;16.30;52.12
75166;BME280;63747;48.042;10.088;2023-07-08T03:06:08;95351.97;;;16.26;52.47
75166;BME280;63747;48.042;10.088;2023-07-08T03:09:10;95351.97;;;16.26;52.41
75166;BME280;63747;48.042;10.088;2023-07-08T03:12:12;95347.88;;;16.30;52.36
75166;BME280;63747;48.042;10.088;2023-07-08T03:15:12;95355.09;;;16.36;52.63
75166;BME280;63747;48.042;10.088;2023-07-08T03:18:13;95347.66;;;16.31;53.36
75166;BME280;63747;48.042;10.088;2023-07-08T03:21:16;95344.38;;;16.23;53.97
75166;BME280;63747;48.042;10.088;2023-07-08T03:24:17;95338.16;;;16.16;53.98
75166;BME280;63747;48.042;10.088;2023-07-08T03:27:18;95345.63;;;16.20;53.88
75166;BME280;63747;48.042;10.088;2023-07-08T03:30:19;95338.59;;;16.26;53.90
75166;BME280;63747;48.042;10.088;2023-07-08T03:33:20;95329.53;;;16.07;54.77
75166;BME280;63747;48.042;10.088;2023-07-08T03:36:21;95336.53;;;16.08;54.50
75166;BME280;63747;48.042;10.088;2023-07-08T03:39:24;95349.47;;;16.11;55.09
75166;BME280;63747;48.042;10.088;2023-07-08T03:42:25;95343.91;;;16.13;53.75
75166;BME280;63747;48.042;10.088;2023-07-08T03:45:26;95343.91;;;16.13;54.59
75166;BME280;63747;48.042;10.088;2023-07-08T03:48:27;95344.75;;;16.13;54.51
75166;BME280;63747;48.042;10.088;2023-07-08T03:51:33;95343.91;;;16.13;54.76
75166;BME280;63747;48.042;10.088;2023-07-08T03:54:35;95345.75;;;16.12;54.86
75166;BME280;63747;48.042;10.088;2023-07-08T03:57:36;95351.56;;;16.22;54.39
75166;BME280;63747;48.042;10.088;2023-07-08T04:00:36;95341.91;;;16.28;54.30
75166;BME280;63747;48.042;10.088;2023-07-08T04:03:37;95343.94;;;16.26;54.51
75166;BME280;63747;48.042;10.088;2023-07-08T04:06:38;95346.84;;;16.31;54.43
75166;BME280;63747;48.042;10.088;2023-07-08T04:09:38;95347.44;;;16.33;55.02
75166;BME280;63747;48.042;10.088;2023-07-08T04:12:40;95343.78;;;16.34;55.47
75166;BME280;63747;48.042;10.088;2023-07-08T04:15:40;95335.94;;;16.26;53.98
75166;BME280;63747;48.042;10.088;2023-07-08T04:18:41;95331.59;;;16.25;55.17
75166;BME280;63747;48.042;10.088;2023-07-08T04:21:43;95318.06;;;16.26;56.20
75166;BME280;63747;48.042;10.088;2023-07-08T04:24:44;95325.22;;;16.26;56.72
75166;BME280;63747;48.042;10.088;2023-07-08T04:27:44;95330.19;;;16.29;56.55
75166;BME280;63747;48.042;10.088;2023-07-08T04:30:45;95326.25;;;16.25;56.94
75166;BME280;63747;48.042;10.088;2023-07-08T04:33:46;95328.09;;;16.18;57.12
75166;BME280;63747;48.042;10.088;2023-07-08T04:36:47;95331.16;;;16.08;57.29
75166;BME280;63747;48.042;10.088;2023-07-08T04:39:47;95362.81;;;16.04;57.30
75166;BME280;63747;48.042;10.088;2023-07-08T04:42:48;95389.56;;;15.98;57.49
75166;BME280;63747;48.042;10.088;2023-07-08T04:45:52;95360.16;;;15.98;56.91
75166;BME280;63747;48.042;10.088;2023-07-08T04:48:53;95354.41;;;16.08;56.13
75166;BME280;63747;48.042;10.088;2023-07-08T04:51:55;95369.88;;;16.19;56.06
75166;BME280;63747;48.042;10.088;2023-07-08T04:54:56;95368.25;;;16.31;55.26
75166;BME280;63747;48.042;10.088;2023-07-08T04:57:56;95358.16;;;16.40;55.55
75166;BME280;63747;48.042;10.088;2023-07-08T05:00:57;95376.88;;;16.40;55.56
75166;BME280;63747;48.042;10.088;2023-07-08T05:03:58;95394.78;;;16.46;55.44
75166;BME280;63747;48.042;10.088;2023-07-08T05:06:59;95398.09;;;16.48;56.14
75166;BME280;63747;48.042;10.088;2023-07-08T05:10:00;95391.28;;;16.52;55.72
75166;BME280;63747;48.042;10.088;2023-07-08T05:13:01;95380.59;;;16.52;55.86
75166;BME280;63747;48.042;10.088;2023-07-08T05:16:01;95389.03;;;16.55;56.16
75166;BME280;63747;48.042;10.088;2023-07-08T05:19:02;95379.56;;;16.59;55.67
75166;BME280;63747;48.042;10.088;2023-07-08T05:22:03;95402.81;;;16.72;55.00
75166;BME280;63747;48.042;10.088;2023-07-08T05:25:04;95396.44;;;16.80;55.03
75166;BME280;63747;48.042;10.088;2023-07-08T05:28:05;95384.06;;;16.85;55.64
75166;BME280;63747;48.042;10.088;2023-07-08T05:31:06;95407.94;;;16.94;55.32
75166;BME280;63747;48.042;10.088;2023-07-08T05:34:06;95406.28;;;16.99;55.37
75166;BME280;63747;48.042;10.088;2023-07-08T05:37:07;95402.41;;;17.08;55.63
75166;BME280;63747;48.042;10.088;2023-07-08T05:40:08;95399.28;;;17.18;55.18
75166;BME280;63747;48.042;10.088;2023-07-08T05:43:09;95415.97;;;17.27;54.80
75166;BME280;63747;48.042;10.088;2023-07-08T05:46:10;95423.78;;;17.35;54.61
75166;BME280;63747;48.042;10.088;2023-07-08T05:49:10;95417.56;;;17.41;54.88
75166;BME280;63747;48.042;10.088;2023-07-08T05:52:11;95412.59;;;17.51;54.58
75166;BME280;63747;48.042;10.088;2023-07-08T05:55:12;95411.31;;;17.60;54.03
75166;BME280;63747;48.042;10.088;2023-07-08T05:58:13;95412.34;;;17.66;53.80
75166;BME280;63747;48.042;10.088;2023-07-08T06:01:15;95403.44;;;17.72;53.66
75166;BME280;63747;48.042;10.088;2023-07-08T06:04:16;95407.13;;;17.78;53.56
75166;BME280;63747;48.042;10.088;2023-07-08T06:07:16;95400.28;;;17.82;53.58
75166;BME280;63747;48.042;10.088;2023-07-08T06:10:17;95405.00;;;17.93;54.09
75166;BME280;63747;48.042;10.088;2023-07-08T06:13:18;95407.25;;;18.03;53.32
75166;BME280;63747;48.042;10.088;2023-07-08T06:16:18;95402.88;;;18.08;53.15
75166;BME280;63747;48.042;10.088;2023-07-08T06:19:19;95395.66;;;18.09;52.73
75166;BME280;63747;48.042;10.088;2023-07-08T06:22:20;95401.41;;;18.12;52.92
75166;BME280;63747;48.042;10.088;2023-07-08T06:25:21;95403.25;;;18.18;52.98
75166;BME280;63747;48.042;10.088;2023-07-08T06:28:22;95400.75;;;18.24;52.92
75166;BME280;63747;48.042;10.088;2023-07-08T06:31:22;95403.19;;;18.25;52.09
75166;BME280;63747;48.042;10.088;2023-07-08T06:34:23;95405.25;;;18.30;52.91
75166;BME280;63747;48.042;10.088;2023-07-08T06:37:24;95397.97;;;18.37;52.04
75166;BME280;63747;48.042;10.088;2023-07-08T06:40:24;95397.06;;;18.43;52.33
75166;BME280;63747;48.042;10.088;2023-07-08T06:43:25;95396.66;;;18.46;51.87
75166;BME280;63747;48.042;10.088;2023-07-08T06:46:26;95396.59;;;18.53;52.85
75166;BME280;63747;48.042;10.088;2023-07-08T06:49:30;95411.16;;;18.63;52.68
75166;BME280;63747;48.042;10.088;2023-07-08T06:52:30;95419.31;;;18.82;52.89
75166;BME280;63747;48.042;10.088;2023-07-08T06:55:35;95418.38;;;18.94;52.90
75166;BME280;63747;48.042;10.088;2023-07-08T06:58:35;95425.88;;;19.11;51.83
75166;BME280;63747;48.042;10.088;2023-07-08T07:01:36;95424.78;;;19.18;52.03
75166;BME280;63747;48.042;10.088;2023-07-08T07:04:37;95435.69;;;19.23;51.46
75166;BME280;63747;48.042;10.088;2023-07-08T07:07:37;95434.38;;;19.33;50.56
75166;BME280;63747;48.042;10.088;2023-07-08T07:10:38;95440.72;;;19.38;50.23
75166;BME280;63747;48.042;10.088;2023-07-08T07:13:39;95441.09;;;19.42;50.02
75166;BME280;63747;48.042;10.088;2023-07-08T07:16:39;95448.91;;;19.43;49.88
75166;BME280;63747;48.042;10.088;2023-07-08T07:19:42;95440.34;;;19.53;50.41
75166;BME280;63747;48.042;10.088;2023-07-08T07:22:42;95435.44;;;19.68;49.85
75166;BME280;63747;48.042;10.088;2023-07-08T07:25:44;95443.59;;;19.80;49.93
75166;BME280;63747;48.042;10.088;2023-07-08T07:28:47;95445.97;;;19.88;49.74
75166;BME280;63747;48.042;10.088;2023-07-08T07:31:48;95447.91;;;19.99;49.31
75166;BME280;63747;48.042;10.088;2023-07-08T07:34:49;95438.81;;;20.12;48.40
75166;BME280;63747;48.042;10.088;2023-07-08T07:37:50;95445.91;;;20.25;48.18
75166;BME280;63747;48.042;10.088;2023-07-08T07:40:52;95449.41;;;20.44;47.92
75166;BME280;63747;48.042;10.088;2023-07-08T07:43:53;95449.34;;;20.62;47.93
75166;BME280;63747;48.042;10.088;2023-07-08T07:46:54;95439.31;;;20.81;47.92
75166;BME280;63747;48.042;10.088;2023-07-08T07:49:54;95455.19;;;21.01;47.39
75166;BME280;63747;48.042;10.088;2023-07-08T07:52:55;95460.03;;;21.22;46.68
75166;BME280;63747;48.042;10.088;2023-07-08T07:55:57;95456.25;;;21.46;46.94
75166;BME280;63747;48.042;10.088;2023-07-08T07:58:58;95460.00;;;21.57;46.72
75166;BME280;63747;48.042;10.088;2023-07-08T08:01:59;95461.16;;;21.73;46.61
75166;BME280;63747;48.042;10.088;2023-07-08T08:04:59;95471.13;;;21.96;46.13
75166;BME280;63747;48.042;10.088;2023-07-08T08:08:00;95465.81;;;22.13;45.85
75166;BME280;63747;48.042;10.088;2023-07-08T08:11:04;95470.22;;;22.31;45.94
75166;BME280;63747;48.042;10.088;2023-07-08T08:14:04;95475.06;;;22.57;46.45
75166;BME280;63747;48.042;10.088;2023-07-08T08:17:05;95470.03;;;22.94;45.98
75166;BME280;63747;48.042;10.088;2023-07-08T08:20:07;95470.38;;;23.15;45.01
75166;BME280;63747;48.042;10.088;2023-07-08T08:23:08;95461.88;;;23.23;44.64
75166;BME280;63747;48.042;10.088;2023-07-08T08:26:09;95461.53;;;23.36;43.69
75166;BME280;63747;48.042;10.088;2023-07-08T08:29:09;95469.91;;;23.51;43.75
75166;BME280;63747;48.042;10.088;2023-07-08T08:32:10;95467.78;;;23.75;43.65
75166;BME280;63747;48.042;10.088;2023-07-08T08:35:11;95473.69;;;24.11;44.35
75166;BME280;63747;48.042;10.088;2023-07-08T08:38:12;95479.75;;;24.40;43.68
75166;BME280;63747;48.042;10.088;2023-07-08T08:41:14;95479.03;;;24.71;41.95
75166;BME280;63747;48.042;10.088;2023-07-08T08:44:17;95487.34;;;24.87;42.91
75166;BME280;63747;48.042;10.088;2023-07-08T08:50:44;95495.97;;;24.84;42.40
75166;BME280;63747;48.042;10.088;2023-07-08T08:53:47;95499.97;;;24.76;41.96
75166;BME280;63747;48.042;10.088;2023-07-08T08:57:06;95500.22;;;24.75;42.17
75166;BME280;63747;48.042;10.088;2023-07-08T09:00:16;95498.06;;;25.04;42.77
75166;BME280;63747;48.042;10.088;2023-07-08T09:03:32;95517.09;;;25.36;41.97
75166;BME280;63747;48.042;10.088;2023-07-08T09:06:34;95497.00;;;25.74;42.55
75166;BME280;63747;48.042;10.088;2023-07-08T09:09:45;95507.19;;;25.94;41.57
75166;BME280;63747;48.042;10.088;2023-07-08T09:12:50;95504.81;;;26.02;41.14
75166;BME280;63747;48.042;10.088;2023-07-08T09:19:32;95514.44;;;26.98;39.72
75166;BME280;63747;48.042;10.088;2023-07-08T09:22:40;95508.47;;;27.17;39.81
75166;BME280;63747;48.042;10.088;2023-07-08T09:26:02;95509.31;;;27.32;39.30
75166;BME280;63747;48.042;10.088;2023-07-08T09:29:08;95509.81;;;26.99;39.68
75166;BME280;63747;48.042;10.088;2023-07-08T09:32:22;95518.94;;;26.57;37.46
75166;BME280;63747;48.042;10.088;2023-07-08T09:35:26;95510.06;;;26.19;36.94
75166;BME280;63747;48.042;10.088;2023-07-08T09:38:27;95518.53;;;25.81;37.81
75166;BME280;63747;48.042;10.088;2023-07-08T09:41:35;95509.22;;;25.71;38.05
75166;BME280;63747;48.042;10.088;2023-07-08T09:44:38;95516.50;;;26.03;37.58
75166;BME280;63747;48.042;10.088;2023-07-08T09:47:38;95517.03;;;26.05;35.53
75166;BME280;63747;48.042;10.088;2023-07-08T09:50:43;95520.63;;;26.11;35.90
75166;BME280;63747;48.042;10.088;2023-07-08T09:53:44;95513.88;;;26.23;36.12
75166;BME280;63747;48.042;10.088;2023-07-08T09:57:12;95516.44;;;26.45;35.51
75166;BME280;63747;48.042;10.088;2023-07-08T10:00:14;95511.38;;;26.79;36.43
75166;BME280;63747;48.042;10.088;2023-07-08T10:03:20;95508.78;;;27.40;35.16
75166;BME280;63747;48.042;10.088;2023-07-08T10:06:25;95502.25;;;27.67;33.82
75166;BME280;63747;48.042;10.088;2023-07-08T10:09:26;95503.88;;;27.78;35.07
75166;BME280;63747;48.042;10.088;2023-07-08T10:12:28;95510.97;;;27.69;34.07
75166;BME280;63747;48.042;10.088;2023-07-08T10:15:35;95506.84;;;27.82;34.86
75166;BME280;63747;48.042;10.088;2023-07-08T10:18:37;95508.72;;;27.97;34.29
75166;BME280;63747;48.042;10.088;2023-07-08T10:24:58;95522.38;;;27.51;34.23
75166;BME280;63747;48.042;10.088;2023-07-08T10:28:29;95520.72;;;27.04;36.25
75166;BME280;63747;48.042;10.088;2023-07-08T10:31:41;95528.38;;;27.32;36.06
75166;BME280;63747;48.042;10.088;2023-07-08T10:34:54;95525.63;;;27.99;34.49
75166;BME280;63747;48.042;10.088;2023-07-08T10:45:14;95522.88;;;28.04;35.74
75166;BME280;63747;48.042;10.088;2023-07-08T10:55:11;95528.75;;;28.52;34.30
75166;BME280;63747;48.042;10.088;2023-07-08T11:01:42;95516.28;;;28.40;34.86
75166;BME280;63747;48.042;10.088;2023-07-08T11:08:34;95519.09;;;29.24;35.55
75166;BME280;63747;48.042;10.088;2023-07-08T11:11:47;95519.25;;;29.48;33.47
75166;BME280;63747;48.042;10.088;2023-07-08T11:14:59;95516.53;;;29.43;34.67
75166;BME280;63747;48.042;10.088;2023-07-08T11:21:29;95502.22;;;29.17;33.67
75166;BME280;63747;48.042;10.088;2023-07-08T11:24:37;95507.50;;;29.08;34.26
75166;BME280;63747;48.042;10.088;2023-07-08T11:27:42;95506.03;;;28.77;34.63
75166;BME280;63747;48.042;10.088;2023-07-08T11:30:47;95507.84;;;28.96;35.17
75166;BME280;63747;48.042;10.088;2023-07-08T11:33:48;95501.38;;;28.82;34.05
75166;BME280;63747;48.042;10.088;2023-07-08T11:36:51;95500.56;;;28.82;33.71
75166;BME280;63747;48.042;10.088;2023-07-08T11:43:05;95498.50;;;28.48;34.10
75166;BME280;63747;48.042;10.088;2023-07-08T11:46:06;95494.69;;;28.44;34.31
75166;BME280;63747;48.042;10.088;2023-07-08T11:49:12;95497.72;;;28.42;33.89
75166;BME280;63747;48.042;10.088;2023-07-08T11:52:17;95502.72;;;28.20;34.69
75166;BME280;63747;48.042;10.088;2023-07-08T11:55:24;95505.44;;;28.20;35.19
75166;BME280;63747;48.042;10.088;2023-07-08T11:58:30;95496.66;;;28.33;34.87
75166;BME280;63747;48.042;10.088;2023-07-08T12:01:52;95496.88;;;28.47;36.26
75166;BME280;63747;48.042;10.088;2023-07-08T12:07:56;95492.31;;;29.31;34.43
75166;BME280;63747;48.042;10.088;2023-07-08T12:11:10;95492.44;;;29.79;34.54
75166;BME280;63747;48.042;10.088;2023-07-08T12:14:12;95486.22;;;29.73;32.43
75166;BME280;63747;48.042;10.088;2023-07-08T12:17:14;95488.63;;;29.12;32.82
75166;BME280;63747;48.042;10.088;2023-07-08T12:20:37;95487.38;;;28.94;34.13
75166;BME280;63747;48.042;10.088;2023-07-08T12:23:44;95488.09;;;29.10;34.72
75166;BME280;63747;48.042;10.088;2023-07-08T12:26:45;95496.69;;;29.27;34.65
75166;BME280;63747;48.042;10.088;2023-07-08T12:29:46;95492.44;;;29.11;34.83
75166;BME280;63747;48.042;10.088;2023-07-08T12:32:47;95496.75;;;29.22;34.90
75166;BME280;63747;48.042;10.088;2023-07-08T12:35:48;95497.25;;;29.24;35.40
75166;BME280;63747;48.042;10.088;2023-07-08T12:38:49;95492.31;;;29.65;34.27
75166;BME280;63747;48.042;10.088;2023-07-08T12:41:50;95493.59;;;29.73;34.16
75166;BME280;63747;48.042;10.088;2023-07-08T12:44:51;95492.28;;;29.99;33.78
75166;BME280;63747;48.042;10.088;2023-07-08T12:47:52;95501.22;;;30.05;33.85
75166;BME280;63747;48.042;10.088;2023-07-08T12:50:52;95499.72;;;30.18;32.38
75166;BME280;63747;48.042;10.088;2023-07-08T12:53:53;95494.13;;;30.28;32.14
75166;BME280;63747;48.042;10.088;2023-07-08T12:56:54;95490.06;;;30.25;30.70
75166;BME280;63747;48.042;10.088;2023-07-08T12:59:55;95483.19;;;30.28;31.18
75166;BME280;63747;48.042;10.088;2023-07-08T13:03:03;95486.75;;;30.52;31.15
75166;BME280;63747;48.042;10.088;2023-07-08T13:06:06;95486.63;;;30.62;32.44
75166;BME280;63747;48.042;10.088;2023-07-08T13:09:28;95484.06;;;31.47;33.37
75166;BME280;63747;48.042;10.088;2023-07-08T13:12:31;95479.66;;;32.24;29.10
75166;BME280;63747;48.042;10.088;2023-07-08T13:15:37;95484.44;;;32.05;30.04
75166;BME280;63747;48.042;10.088;2023-07-08T13:18:42;95494.06;;;31.70;29.61
75166;BME280;63747;48.042;10.088;2023-07-08T13:21:44;95496.44;;;31.25;30.63
75166;BME280;63747;48.042;10.088;2023-07-08T13:24:46;95490.38;;;30.90;30.36
75166;BME280;63747;48.042;10.088;2023-07-08T13:27:59;95478.09;;;30.45;30.11
75166;BME280;63747;48.042;10.088;2023-07-08T13:31:02;95479.50;;;30.43;30.89
75166;BME280;63747;48.042;10.088;2023-07-08T13:34:17;95477.47;;;31.10;29.86
75166;BME280;63747;48.042;10.088;2023-07-08T13:37:19;95479.19;;;31.90;28.06
75166;BME280;63747;48.042;10.088;2023-07-08T13:40:26;95470.09;;;31.94;28.36
75166;BME280;63747;48.042;10.088;2023-07-08T13:43:30;95483.44;;;31.82;28.30
75166;BME280;63747;48.042;10.088;2023-07-08T13:50:01;95463.19;;;32.11;30.25
75166;BME280;63747;48.042;10.088;2023-07-08T13:53:19;95473.53;;;32.83;30.04
75166;BME280;63747;48.042;10.088;2023-07-08T13:56:26;95476.88;;;33.29;27.95
75166;BME280;63747;48.042;10.088;2023-07-08T13:59:28;95476.03;;;33.43;27.63
75166;BME280;63747;48.042;10.088;2023-07-08T14:02:31;95465.66;;;33.26;27.83
75166;BME280;63747;48.042;10.088;2023-07-08T14:05:32;95469.06;;;32.87;27.36
75166;BME280;63747;48.042;10.088;2023-07-08T14:08:33;95466.53;;;32.76;27.44
75166;BME280;63747;48.042;10.088;2023-07-08T14:11:34;95463.69;;;33.18;27.80
75166;BME280;63747;48.042;10.088;2023-07-08T14:14:34;95470.72;;;33.32;26.39
75166;BME280;63747;48.042;10.088;2023-07-08T14:17:37;95467.66;;;33.48;26.41
75166;BME280;63747;48.042;10.088;2023-07-08T14:20:38;95464.53;;;33.63;26.00
75166;BME280;63747;48.042;10.088;2023-07-08T14:23:38;95460.50;;;33.92;25.86
75166;BME280;63747;48.042;10.088;2023-07-08T14:26:43;95462.94;;;33.71;24.74
75166;BME280;63747;48.042;10.088;2023-07-08T14:29:49;95460.28;;;32.98;26.23
75166;BME280;63747;48.042;10.088;2023-07-08T14:32:50;95465.28;;;32.83;26.89
75166;BME280;63747;48.042;10.088;2023-07-08T14:35:51;95460.28;;;32.85;26.48
75166;BME280;63747;48.042;10.088;2023-07-08T14:38:51;95468.09;;;33.05;26.49
75166;BME280;63747;48.042;10.088;2023-07-08T14:41:52;95465.66;;;33.26;25.92
75166;BME280;63747;48.042;10.088;2023-07-08T14:44:53;95455.41;;;32.95;26.47
75166;BME280;63747;48.042;10.088;2023-07-08T14:47:55;95457.50;;;33.12;24.63
75166;BME280;63747;48.042;10.088;2023-07-08T14:50:56;95457.38;;;33.17;26.23
75166;BME280;63747;48.042;10.088;2023-07-08T14:53:57;95445.38;;;33.13;26.38
75166;BME280;63747;48.042;10.088;2023-07-08T14:56:57;95443.25;;;33.10;26.45
75166;BME280;63747;48.042;10.088;2023-07-08T15:00:00;95446.66;;;33.29;25.30
75166;BME280;63747;48.042;10.088;2023-07-08T15:03:00;95443.63;;;33.40;25.09
75166;BME280;63747;48.042;10.088;2023-07-08T15:06:01;95436.91;;;32.87;24.45
75166;BME280;63747;48.042;10.088;2023-07-08T15:09:02;95431.91;;;32.53;26.39
75166;BME280;63747;48.042;10.088;2023-07-08T15:12:03;95431.22;;;32.84;26.17
75166;BME280;63747;48.042;10.088;2023-07-08T15:15:05;95425.84;;;32.78;26.81
75166;BME280;63747;48.042;10.088;2023-07-08T15:18:13;95421.16;;;33.15;26.01
75166;BME280;63747;48.042;10.088;2023-07-08T15:21:15;95422.53;;;33.26;26.47
75166;BME280;63747;48.042;10.088;2023-07-08T15:24:16;95427.97;;;33.40;26.48
75166;BME280;63747;48.042;10.088;2023-07-08T15:27:19;95420.78;;;33.53;26.36
75166;BME280;63747;48.042;10.088;2023-07-08T15:30:24;95419.41;;;33.19;27.14
75166;BME280;63747;48.042;10.088;2023-07-08T15:33:25;95416.41;;;33.29;26.38
75166;BME280;63747;48.042;10.088;2023-07-08T15:36:26;95415.44;;;33.48;26.48
75166;BME280;63747;48.042;10.088;2023-07-08T15:39:27;95417.88;;;33.49;26.23
75166;BME280;63747;48.042;10.088;2023-07-08T15:42:27;95416.97;;;33.40;26.73
75166;BME280;63747;48.042;10.088;2023-07-08T15:45:31;95407.47;;;33.24;27.71
75166;BME280;63747;48.042;10.088;2023-07-08T15:48:32;95416.22;;;33.26;27.26
75166;BME280;63747;48.042;10.088;2023-07-08T15:51:33;95414.72;;;33.20;27.34
75166;BME280;63747;48.042;10.088;2023-07-08T15:54:34;95409.91;;;33.03;28.04
75166;BME280;63747;48.042;10.088;2023-07-08T15:58:02;95410.41;;;33.05;27.33
75166;BME280;63747;48.042;10.088;2023-07-08T16:01:03;95410.94;;;33.07;27.33
75166;BME280;63747;48.042;10.088;2023-07-08T16:04:04;95413.25;;;33.14;26.04
75166;BME280;63747;48.042;10.088;2023-07-08T16:07:08;95407.31;;;33.20;26.65
75166;BME280;63747;48.042;10.088;2023-07-08T16:10:09;95400.66;;;32.99;27.43
75166;BME280;63747;48.042;10.088;2023-07-08T16:13:10;95390.63;;;32.94;27.54
75166;BME280;63747;48.042;10.088;2023-07-08T16:16:12;95397.66;;;32.87;27.31
75166;BME280;63747;48.042;10.088;2023-07-08T16:19:14;95398.63;;;32.91;27.30
75166;BME280;63747;48.042;10.088;2023-07-08T16:22:14;95399.28;;;32.88;28.36
75166;BME280;63747;48.042;10.088;2023-07-08T16:25:17;95390.63;;;32.94;27.60
75166;BME280;63747;48.042;10.088;2023-07-08T16:28:30;95391.13;;;32.96;27.63
75166;BME280;63747;48.042;10.088;2023-07-08T16:31:33;95386.34;;;32.52;28.56
75166;BME280;63747;48.042;10.088;2023-07-08T16:34:34;95400.00;;;32.43;28.27
75166;BME280;63747;48.042;10.088;2023-07-08T16:37:35;95393.91;;;32.46;28.07
75166;BME280;63747;48.042;10.088;2023-07-08T16:40:36;95396.13;;;32.31;27.97
75166;BME280;63747;48.042;10.088;2023-07-08T16:43:37;95384.03;;;32.45;27.46